sensor_id;sensor_type;location;lat;lon;timestamp;P1;durP1;ratioP1;P2;durP2;ratioP2
20830;SDS011;10576;53.556;9.868;2023-05-17T00:01:48;15.73;;;4.40;;
20830;SDS011;10576;53.556;9.868;2023-05-17T00:04:13;15.77;;;4.60;;
20830;SDS011;10576;53.556;9.868;2023-05-17T00:06:40;16.38;;;4.75;;
20830;SDS011;10576;53.556;9.868;2023-05-17T00:09:07;17.03;;;4.80;;
20830;SDS011;10576;53.556;9.868;2023-05-17T00:11:33;15.15;;;4.55;;
20830;SDS011;10576;53.556;9.868;2023-05-17T00:13:58;11.68;;;4.15;;
20830;SDS011;10576;53.556;9.868;2023-05-17T00:16:24;14.02;;;4.30;;
20830;SDS011;10576;53.556;9.868;2023-05-17T00:18:50;15.27;;;4.20;;
20830;SDS011;10576;53.556;9.868;2023-05-17T00:21:15;16.67;;;4.70;;
20830;SDS011;10576;53.556;9.868;2023-05-17T00:23:42;18.23;;;4.60;;
20830;SDS011;10576;53.556;9.868;2023-05-17T00:26:07;16.65;;;4.25;;
20830;SDS011;10576;53.556;9.868;2023-05-17T00:28:33;13.82;;;3.80;;
20830;SDS011;10576;53.556;9.868;2023-05-17T00:30:59;18.63;;;4.20;;
20830;SDS011;10576;53.556;9.868;2023-05-17T00:33:24;16.33;;;4.18;;
20830;SDS011;10576;53.556;9.868;2023-05-17T00:35:50;12.65;;;4.18;;
20830;SDS011;10576;53.556;9.868;2023-05-17T00:38:15;16.52;;;4.35;;
20830;SDS011;10576;53.556;9.868;2023-05-17T00:40:41;16.15;;;3.70;;
20830;SDS011;10576;53.556;9.868;2023-05-17T00:43:07;14.25;;;4.05;;
20830;SDS011;10576;53.556;9.868;2023-05-17T00:45:32;10.48;;;3.65;;
20830;SDS011;10576;53.556;9.868;2023-05-17T00:47:58;14.93;;;4.07;;
20830;SDS011;10576;53.556;9.868;2023-05-17T00:50:24;14.10;;;4.00;;
20830;SDS011;10576;53.556;9.868;2023-05-17T00:52:49;17.50;;;4.30;;
20830;SDS011;10576;53.556;9.868;2023-05-17T00:55:15;17.27;;;3.60;;
20830;SDS011;10576;53.556;9.868;2023-05-17T00:57:43;15.82;;;4.00;;
20830;SDS011;10576;53.556;9.868;2023-05-17T01:00:09;14.48;;;4.10;;
20830;SDS011;10576;53.556;9.868;2023-05-17T01:02:35;17.02;;;4.25;;
20830;SDS011;10576;53.556;9.868;2023-05-17T01:05:01;18.02;;;4.15;;
20830;SDS011;10576;53.556;9.868;2023-05-17T01:07:27;19.20;;;4.57;;
20830;SDS011;10576;53.556;9.868;2023-05-17T01:09:53;16.30;;;4.60;;
20830;SDS011;10576;53.556;9.868;2023-05-17T01:15:27;12.83;;;4.20;;
20830;SDS011;10576;53.556;9.868;2023-05-17T01:20:44;17.90;;;4.40;;
20830;SDS011;10576;53.556;9.868;2023-05-17T01:23:33;15.82;;;4.35;;
20830;SDS011;10576;53.556;9.868;2023-05-17T01:26:13;16.02;;;4.40;;
20830;SDS011;10576;53.556;9.868;2023-05-17T01:28:40;18.98;;;4.28;;
20830;SDS011;10576;53.556;9.868;2023-05-17T01:31:09;17.77;;;4.17;;
20830;SDS011;10576;53.556;9.868;2023-05-17T01:33:35;16.35;;;4.03;;
20830;SDS011;10576;53.556;9.868;2023-05-17T01:36:02;15.60;;;3.80;;
20830;SDS011;10576;53.556;9.868;2023-05-17T01:38:27;15.77;;;3.80;;
20830;SDS011;10576;53.556;9.868;2023-05-17T01:43:49;17.33;;;4.05;;
20830;SDS011;10576;53.556;9.868;2023-05-17T01:49:17;14.48;;;4.28;;
20830;SDS011;10576;53.556;9.868;2023-05-17T01:51:57;16.00;;;4.43;;
20830;SDS011;10576;53.556;9.868;2023-05-17T01:54:45;17.98;;;4.07;;
20830;SDS011;10576;53.556;9.868;2023-05-17T01:57:14;10.85;;;3.67;;
20830;SDS011;10576;53.556;9.868;2023-05-17T01:59:42;15.55;;;4.47;;
20830;SDS011;10576;53.556;9.868;2023-05-17T02:02:09;16.37;;;3.67;;
20830;SDS011;10576;53.556;9.868;2023-05-17T02:04:35;15.13;;;3.93;;
20830;SDS011;10576;53.556;9.868;2023-05-17T02:07:01;12.95;;;3.53;;
20830;SDS011;10576;53.556;9.868;2023-05-17T02:09:27;15.97;;;3.87;;
20830;SDS011;10576;53.556;9.868;2023-05-17T02:11:53;16.42;;;3.88;;
20830;SDS011;10576;53.556;9.868;2023-05-17T02:14:18;14.38;;;3.80;;
20830;SDS011;10576;53.556;9.868;2023-05-17T02:16:44;14.57;;;3.95;;
20830;SDS011;10576;53.556;9.868;2023-05-17T02:19:09;16.00;;;3.60;;
20830;SDS011;10576;53.556;9.868;2023-05-17T02:21:37;11.93;;;3.30;;
20830;SDS011;10576;53.556;9.868;2023-05-17T02:24:05;15.35;;;3.25;;
20830;SDS011;10576;53.556;9.868;2023-05-17T02:26:31;12.43;;;2.90;;
20830;SDS011;10576;53.556;9.868;2023-05-17T02:28:57;11.52;;;2.92;;
20830;SDS011;10576;53.556;9.868;2023-05-17T02:31:23;10.77;;;2.90;;
20830;SDS011;10576;53.556;9.868;2023-05-17T02:33:51;11.93;;;3.65;;
20830;SDS011;10576;53.556;9.868;2023-05-17T02:36:17;15.02;;;2.92;;
20830;SDS011;10576;53.556;9.868;2023-05-17T02:38:43;13.30;;;2.55;;
20830;SDS011;10576;53.556;9.868;2023-05-17T02:41:08;14.40;;;2.58;;
20830;SDS011;10576;53.556;9.868;2023-05-17T02:43:34;8.25;;;2.67;;
20830;SDS011;10576;53.556;9.868;2023-05-17T02:46:00;11.52;;;2.65;;
20830;SDS011;10576;53.556;9.868;2023-05-17T02:48:25;9.93;;;2.60;;
20830;SDS011;10576;53.556;9.868;2023-05-17T02:50:51;14.88;;;3.10;;
20830;SDS011;10576;53.556;9.868;2023-05-17T02:53:17;11.18;;;3.00;;
20830;SDS011;10576;53.556;9.868;2023-05-17T02:55:42;11.68;;;2.78;;
20830;SDS011;10576;53.556;9.868;2023-05-17T02:58:08;8.13;;;2.25;;
20830;SDS011;10576;53.556;9.868;2023-05-17T03:00:33;9.70;;;2.72;;
20830;SDS011;10576;53.556;9.868;2023-05-17T03:02:59;10.70;;;2.43;;
20830;SDS011;10576;53.556;9.868;2023-05-17T03:05:25;11.43;;;2.60;;
20830;SDS011;10576;53.556;9.868;2023-05-17T03:07:51;6.82;;;2.17;;
20830;SDS011;10576;53.556;9.868;2023-05-17T03:10:17;7.47;;;2.08;;
20830;SDS011;10576;53.556;9.868;2023-05-17T03:12:42;9.93;;;2.20;;
20830;SDS011;10576;53.556;9.868;2023-05-17T03:15:08;12.47;;;3.03;;
20830;SDS011;10576;53.556;9.868;2023-05-17T03:17:34;11.23;;;2.28;;
20830;SDS011;10576;53.556;9.868;2023-05-17T03:20:00;11.32;;;2.47;;
20830;SDS011;10576;53.556;9.868;2023-05-17T03:22:26;10.77;;;2.60;;
20830;SDS011;10576;53.556;9.868;2023-05-17T03:24:52;10.60;;;2.90;;
20830;SDS011;10576;53.556;9.868;2023-05-17T03:27:17;9.50;;;2.40;;
20830;SDS011;10576;53.556;9.868;2023-05-17T03:29:43;9.32;;;2.00;;
20830;SDS011;10576;53.556;9.868;2023-05-17T03:32:09;8.00;;;2.03;;
20830;SDS011;10576;53.556;9.868;2023-05-17T03:34:34;6.82;;;2.20;;
20830;SDS011;10576;53.556;9.868;2023-05-17T03:37:00;8.88;;;2.20;;
20830;SDS011;10576;53.556;9.868;2023-05-17T03:39:26;9.40;;;2.08;;
20830;SDS011;10576;53.556;9.868;2023-05-17T03:41:52;12.77;;;2.70;;
20830;SDS011;10576;53.556;9.868;2023-05-17T03:44:17;8.50;;;2.57;;
20830;SDS011;10576;53.556;9.868;2023-05-17T03:46:43;12.03;;;2.60;;
20830;SDS011;10576;53.556;9.868;2023-05-17T03:49:08;12.68;;;2.33;;
20830;SDS011;10576;53.556;9.868;2023-05-17T03:51:34;9.70;;;2.30;;
20830;SDS011;10576;53.556;9.868;2023-05-17T03:54:00;11.73;;;2.97;;
20830;SDS011;10576;53.556;9.868;2023-05-17T03:56:26;12.95;;;2.88;;
20830;SDS011;10576;53.556;9.868;2023-05-17T03:58:52;14.50;;;2.80;;
20830;SDS011;10576;53.556;9.868;2023-05-17T04:01:18;11.32;;;2.47;;
20830;SDS011;10576;53.556;9.868;2023-05-17T04:03:44;14.87;;;2.77;;
20830;SDS011;10576;53.556;9.868;2023-05-17T04:06:11;9.98;;;2.60;;
20830;SDS011;10576;53.556;9.868;2023-05-17T04:08:37;13.48;;;3.28;;
20830;SDS011;10576;53.556;9.868;2023-05-17T04:11:03;13.57;;;3.15;;
20830;SDS011;10576;53.556;9.868;2023-05-17T04:13:37;15.40;;;3.00;;
20830;SDS011;10576;53.556;9.868;2023-05-17T04:16:03;11.23;;;2.80;;
20830;SDS011;10576;53.556;9.868;2023-05-17T04:18:29;13.00;;;2.70;;
20830;SDS011;10576;53.556;9.868;2023-05-17T04:20:55;12.17;;;2.80;;
20830;SDS011;10576;53.556;9.868;2023-05-17T04:23:21;15.57;;;2.93;;
20830;SDS011;10576;53.556;9.868;2023-05-17T04:25:46;19.27;;;3.08;;
20830;SDS011;10576;53.556;9.868;2023-05-17T04:28:12;9.07;;;2.80;;
20830;SDS011;10576;53.556;9.868;2023-05-17T04:30:41;14.10;;;2.83;;
20830;SDS011;10576;53.556;9.868;2023-05-17T04:33:07;13.20;;;3.22;;
20830;SDS011;10576;53.556;9.868;2023-05-17T04:35:33;13.57;;;2.90;;
20830;SDS011;10576;53.556;9.868;2023-05-17T04:38:00;12.18;;;2.63;;
20830;SDS011;10576;53.556;9.868;2023-05-17T04:40:25;13.33;;;3.10;;
20830;SDS011;10576;53.556;9.868;2023-05-17T04:42:51;10.73;;;2.50;;
20830;SDS011;10576;53.556;9.868;2023-05-17T04:45:17;15.32;;;3.00;;
20830;SDS011;10576;53.556;9.868;2023-05-17T04:47:43;11.27;;;2.90;;
20830;SDS011;10576;53.556;9.868;2023-05-17T04:50:09;13.20;;;2.88;;
20830;SDS011;10576;53.556;9.868;2023-05-17T04:52:36;10.52;;;2.67;;
20830;SDS011;10576;53.556;9.868;2023-05-17T04:55:02;14.90;;;3.40;;
20830;SDS011;10576;53.556;9.868;2023-05-17T04:57:29;13.95;;;3.50;;
20830;SDS011;10576;53.556;9.868;2023-05-17T04:59:54;16.25;;;3.42;;
20830;SDS011;10576;53.556;9.868;2023-05-17T05:02:20;14.40;;;3.20;;
20830;SDS011;10576;53.556;9.868;2023-05-17T05:04:46;11.53;;;2.57;;
20830;SDS011;10576;53.556;9.868;2023-05-17T05:07:12;12.65;;;3.13;;
20830;SDS011;10576;53.556;9.868;2023-05-17T05:09:37;14.68;;;3.25;;
20830;SDS011;10576;53.556;9.868;2023-05-17T05:12:03;12.50;;;2.75;;
20830;SDS011;10576;53.556;9.868;2023-05-17T05:14:29;11.82;;;2.88;;
20830;SDS011;10576;53.556;9.868;2023-05-17T05:16:55;17.40;;;3.47;;
20830;SDS011;10576;53.556;9.868;2023-05-17T05:19:21;9.93;;;3.08;;
20830;SDS011;10576;53.556;9.868;2023-05-17T05:21:47;15.13;;;3.05;;
20830;SDS011;10576;53.556;9.868;2023-05-17T05:24:13;15.18;;;2.80;;
20830;SDS011;10576;53.556;9.868;2023-05-17T05:26:38;18.07;;;3.20;;
20830;SDS011;10576;53.556;9.868;2023-05-17T05:29:04;14.05;;;2.95;;
20830;SDS011;10576;53.556;9.868;2023-05-17T05:31:30;15.25;;;3.08;;
20830;SDS011;10576;53.556;9.868;2023-05-17T05:33:56;10.57;;;3.00;;
20830;SDS011;10576;53.556;9.868;2023-05-17T05:36:22;12.52;;;2.50;;
20830;SDS011;10576;53.556;9.868;2023-05-17T05:38:48;11.00;;;2.73;;
20830;SDS011;10576;53.556;9.868;2023-05-17T05:41:17;11.48;;;3.22;;
20830;SDS011;10576;53.556;9.868;2023-05-17T05:43:43;13.68;;;2.70;;
20830;SDS011;10576;53.556;9.868;2023-05-17T05:46:09;11.90;;;2.30;;
20830;SDS011;10576;53.556;9.868;2023-05-17T05:48:35;11.73;;;2.50;;
20830;SDS011;10576;53.556;9.868;2023-05-17T05:51:03;13.48;;;2.58;;
20830;SDS011;10576;53.556;9.868;2023-05-17T05:53:29;8.65;;;2.30;;
20830;SDS011;10576;53.556;9.868;2023-05-17T05:55:55;9.83;;;2.40;;
20830;SDS011;10576;53.556;9.868;2023-05-17T05:58:21;9.52;;;2.53;;
20830;SDS011;10576;53.556;9.868;2023-05-17T06:00:47;9.93;;;2.22;;
20830;SDS011;10576;53.556;9.868;2023-05-17T06:03:13;7.72;;;2.25;;
20830;SDS011;10576;53.556;9.868;2023-05-17T06:05:39;8.75;;;2.00;;
20830;SDS011;10576;53.556;9.868;2023-05-17T06:08:05;12.00;;;2.58;;
20830;SDS011;10576;53.556;9.868;2023-05-17T06:10:31;9.75;;;2.20;;
20830;SDS011;10576;53.556;9.868;2023-05-17T06:12:57;8.93;;;2.10;;
20830;SDS011;10576;53.556;9.868;2023-05-17T06:15:23;7.07;;;2.28;;
20830;SDS011;10576;53.556;9.868;2023-05-17T06:17:51;15.30;;;2.30;;
20830;SDS011;10576;53.556;9.868;2023-05-17T06:20:17;10.07;;;2.30;;
20830;SDS011;10576;53.556;9.868;2023-05-17T06:22:43;12.20;;;2.17;;
20830;SDS011;10576;53.556;9.868;2023-05-17T06:25:08;11.65;;;2.47;;
20830;SDS011;10576;53.556;9.868;2023-05-17T06:27:37;9.33;;;2.53;;
20830;SDS011;10576;53.556;9.868;2023-05-17T06:30:03;10.75;;;2.35;;
20830;SDS011;10576;53.556;9.868;2023-05-17T06:32:30;12.95;;;2.60;;
20830;SDS011;10576;53.556;9.868;2023-05-17T06:34:56;11.45;;;2.10;;
20830;SDS011;10576;53.556;9.868;2023-05-17T06:37:22;11.07;;;2.60;;
20830;SDS011;10576;53.556;9.868;2023-05-17T06:39:49;8.52;;;2.25;;
20830;SDS011;10576;53.556;9.868;2023-05-17T06:42:16;8.93;;;2.22;;
20830;SDS011;10576;53.556;9.868;2023-05-17T06:44:42;9.98;;;2.20;;
20830;SDS011;10576;53.556;9.868;2023-05-17T06:47:08;8.85;;;2.20;;
20830;SDS011;10576;53.556;9.868;2023-05-17T06:49:34;9.63;;;2.28;;
20830;SDS011;10576;53.556;9.868;2023-05-17T06:52:01;9.43;;;2.60;;
20830;SDS011;10576;53.556;9.868;2023-05-17T06:54:29;13.63;;;2.47;;
20830;SDS011;10576;53.556;9.868;2023-05-17T06:56:59;10.35;;;2.75;;
20830;SDS011;10576;53.556;9.868;2023-05-17T06:59:25;13.07;;;2.80;;
20830;SDS011;10576;53.556;9.868;2023-05-17T07:01:51;8.57;;;2.08;;
20830;SDS011;10576;53.556;9.868;2023-05-17T07:04:17;8.55;;;1.90;;
20830;SDS011;10576;53.556;9.868;2023-05-17T07:06:43;9.03;;;2.30;;
20830;SDS011;10576;53.556;9.868;2023-05-17T07:09:09;8.33;;;2.10;;
20830;SDS011;10576;53.556;9.868;2023-05-17T07:11:34;8.60;;;2.13;;
20830;SDS011;10576;53.556;9.868;2023-05-17T07:14:00;8.38;;;2.08;;
20830;SDS011;10576;53.556;9.868;2023-05-17T07:16:26;12.57;;;2.80;;
20830;SDS011;10576;53.556;9.868;2023-05-17T07:18:52;7.20;;;2.03;;
20830;SDS011;10576;53.556;9.868;2023-05-17T07:21:18;10.73;;;2.07;;
20830;SDS011;10576;53.556;9.868;2023-05-17T07:23:44;7.55;;;2.30;;
20830;SDS011;10576;53.556;9.868;2023-05-17T07:26:09;10.65;;;2.80;;
20830;SDS011;10576;53.556;9.868;2023-05-17T07:28:36;11.13;;;2.35;;
20830;SDS011;10576;53.556;9.868;2023-05-17T07:31:02;8.90;;;2.05;;
20830;SDS011;10576;53.556;9.868;2023-05-17T07:33:27;10.35;;;2.20;;
20830;SDS011;10576;53.556;9.868;2023-05-17T07:35:53;11.63;;;2.22;;
20830;SDS011;10576;53.556;9.868;2023-05-17T07:38:19;8.88;;;2.10;;
20830;SDS011;10576;53.556;9.868;2023-05-17T07:40:44;8.52;;;1.92;;
20830;SDS011;10576;53.556;9.868;2023-05-17T07:43:10;8.60;;;2.30;;
20830;SDS011;10576;53.556;9.868;2023-05-17T07:45:36;13.52;;;2.70;;
20830;SDS011;10576;53.556;9.868;2023-05-17T07:48:01;8.55;;;2.15;;
20830;SDS011;10576;53.556;9.868;2023-05-17T07:50:27;8.48;;;2.22;;
20830;SDS011;10576;53.556;9.868;2023-05-17T07:52:53;10.55;;;2.22;;
20830;SDS011;10576;53.556;9.868;2023-05-17T07:55:19;9.67;;;2.37;;
20830;SDS011;10576;53.556;9.868;2023-05-17T07:57:45;9.73;;;2.13;;
20830;SDS011;10576;53.556;9.868;2023-05-17T08:00:12;8.75;;;2.15;;
20830;SDS011;10576;53.556;9.868;2023-05-17T08:02:38;8.30;;;2.38;;
20830;SDS011;10576;53.556;9.868;2023-05-17T08:05:05;9.70;;;2.40;;
20830;SDS011;10576;53.556;9.868;2023-05-17T08:07:32;10.35;;;2.28;;
20830;SDS011;10576;53.556;9.868;2023-05-17T08:09:58;8.90;;;2.20;;
20830;SDS011;10576;53.556;9.868;2023-05-17T08:12:23;9.23;;;2.10;;
20830;SDS011;10576;53.556;9.868;2023-05-17T08:14:50;6.43;;;2.30;;
20830;SDS011;10576;53.556;9.868;2023-05-17T08:17:16;6.57;;;2.50;;
20830;SDS011;10576;53.556;9.868;2023-05-17T08:19:41;9.40;;;2.30;;
20830;SDS011;10576;53.556;9.868;2023-05-17T08:22:07;8.93;;;2.00;;
20830;SDS011;10576;53.556;9.868;2023-05-17T08:24:33;7.28;;;2.05;;
20830;SDS011;10576;53.556;9.868;2023-05-17T08:26:59;10.85;;;2.60;;
20830;SDS011;10576;53.556;9.868;2023-05-17T08:29:26;10.10;;;2.40;;
20830;SDS011;10576;53.556;9.868;2023-05-17T08:31:52;10.02;;;2.30;;
20830;SDS011;10576;53.556;9.868;2023-05-17T08:34:18;11.10;;;2.63;;
20830;SDS011;10576;53.556;9.868;2023-05-17T08:36:44;6.78;;;1.95;;
20830;SDS011;10576;53.556;9.868;2023-05-17T08:39:10;13.25;;;2.67;;
20830;SDS011;10576;53.556;9.868;2023-05-17T08:41:36;9.10;;;2.70;;
20830;SDS011;10576;53.556;9.868;2023-05-17T08:44:02;10.13;;;2.60;;
20830;SDS011;10576;53.556;9.868;2023-05-17T08:46:31;11.55;;;2.50;;
20830;SDS011;10576;53.556;9.868;2023-05-17T08:48:57;11.38;;;2.60;;
20830;SDS011;10576;53.556;9.868;2023-05-17T08:51:26;8.90;;;2.60;;
20830;SDS011;10576;53.556;9.868;2023-05-17T08:53:52;11.02;;;2.67;;
20830;SDS011;10576;53.556;9.868;2023-05-17T08:56:19;9.00;;;2.47;;
20830;SDS011;10576;53.556;9.868;2023-05-17T08:58:47;9.38;;;2.55;;
20830;SDS011;10576;53.556;9.868;2023-05-17T09:01:15;8.43;;;2.60;;
20830;SDS011;10576;53.556;9.868;2023-05-17T09:03:42;12.10;;;2.70;;
20830;SDS011;10576;53.556;9.868;2023-05-17T09:06:14;8.57;;;2.65;;
20830;SDS011;10576;53.556;9.868;2023-05-17T09:08:44;8.88;;;2.30;;
20830;SDS011;10576;53.556;9.868;2023-05-17T09:11:11;8.20;;;2.05;;
20830;SDS011;10576;53.556;9.868;2023-05-17T09:13:36;11.20;;;2.58;;
20830;SDS011;10576;53.556;9.868;2023-05-17T09:16:02;7.18;;;2.10;;
20830;SDS011;10576;53.556;9.868;2023-05-17T09:18:37;7.47;;;2.08;;
20830;SDS011;10576;53.556;9.868;2023-05-17T09:21:02;6.80;;;2.17;;
20830;SDS011;10576;53.556;9.868;2023-05-17T09:23:31;6.93;;;2.08;;
20830;SDS011;10576;53.556;9.868;2023-05-17T09:26:04;6.55;;;2.20;;
20830;SDS011;10576;53.556;9.868;2023-05-17T09:28:38;10.30;;;2.50;;
20830;SDS011;10576;53.556;9.868;2023-05-17T09:31:08;7.57;;;2.20;;
20830;SDS011;10576;53.556;9.868;2023-05-17T09:33:47;7.90;;;2.25;;
20830;SDS011;10576;53.556;9.868;2023-05-17T09:36:18;10.55;;;2.38;;
20830;SDS011;10576;53.556;9.868;2023-05-17T09:39:18;6.07;;;2.28;;
20830;SDS011;10576;53.556;9.868;2023-05-17T09:41:42;9.15;;;2.38;;
20830;SDS011;10576;53.556;9.868;2023-05-17T09:44:10;10.77;;;2.58;;
20830;SDS011;10576;53.556;9.868;2023-05-17T09:46:37;10.57;;;2.70;;
20830;SDS011;10576;53.556;9.868;2023-05-17T09:49:08;10.25;;;2.40;;
20830;SDS011;10576;53.556;9.868;2023-05-17T09:51:34;10.05;;;2.60;;
20830;SDS011;10576;53.556;9.868;2023-05-17T09:54:05;11.80;;;2.63;;
20830;SDS011;10576;53.556;9.868;2023-05-17T09:56:31;10.70;;;2.50;;
20830;SDS011;10576;53.556;9.868;2023-05-17T09:59:02;12.13;;;2.67;;
20830;SDS011;10576;53.556;9.868;2023-05-17T10:01:29;9.80;;;2.77;;
20830;SDS011;10576;53.556;9.868;2023-05-17T10:03:59;9.43;;;2.50;;
20830;SDS011;10576;53.556;9.868;2023-05-17T10:06:27;9.95;;;2.40;;
20830;SDS011;10576;53.556;9.868;2023-05-17T10:08:55;9.00;;;2.53;;
20830;SDS011;10576;53.556;9.868;2023-05-17T10:11:26;8.63;;;2.20;;
20830;SDS011;10576;53.556;9.868;2023-05-17T10:16:33;11.48;;;2.63;;
20830;SDS011;10576;53.556;9.868;2023-05-17T10:19:00;7.30;;;2.67;;
20830;SDS011;10576;53.556;9.868;2023-05-17T10:21:27;7.85;;;2.60;;
20830;SDS011;10576;53.556;9.868;2023-05-17T10:23:55;10.73;;;2.47;;
20830;SDS011;10576;53.556;9.868;2023-05-17T10:26:22;5.70;;;2.28;;
20830;SDS011;10576;53.556;9.868;2023-05-17T10:28:49;9.43;;;2.47;;
20830;SDS011;10576;53.556;9.868;2023-05-17T10:31:20;7.35;;;2.47;;
20830;SDS011;10576;53.556;9.868;2023-05-17T10:33:49;9.38;;;2.22;;
20830;SDS011;10576;53.556;9.868;2023-05-17T10:36:16;7.90;;;2.60;;
20830;SDS011;10576;53.556;9.868;2023-05-17T10:38:42;6.38;;;2.15;;
20830;SDS011;10576;53.556;9.868;2023-05-17T10:41:12;9.38;;;2.33;;
20830;SDS011;10576;53.556;9.868;2023-05-17T10:43:39;9.65;;;2.22;;
20830;SDS011;10576;53.556;9.868;2023-05-17T10:46:16;5.60;;;1.98;;
20830;SDS011;10576;53.556;9.868;2023-05-17T10:48:49;8.00;;;2.08;;
20830;SDS011;10576;53.556;9.868;2023-05-17T10:51:20;4.95;;;1.95;;
20830;SDS011;10576;53.556;9.868;2023-05-17T10:54:06;6.43;;;2.60;;
20830;SDS011;10576;53.556;9.868;2023-05-17T10:56:33;4.30;;;1.80;;
20830;SDS011;10576;53.556;9.868;2023-05-17T11:01:51;6.90;;;1.98;;
20830;SDS011;10576;53.556;9.868;2023-05-17T11:04:34;6.47;;;2.05;;
20830;SDS011;10576;53.556;9.868;2023-05-17T11:09:41;5.07;;;1.70;;
20830;SDS011;10576;53.556;9.868;2023-05-17T11:12:08;5.28;;;1.60;;
20830;SDS011;10576;53.556;9.868;2023-05-17T11:14:45;4.78;;;1.83;;
20830;SDS011;10576;53.556;9.868;2023-05-17T11:17:16;2.90;;;1.50;;
20830;SDS011;10576;53.556;9.868;2023-05-17T11:22:24;5.43;;;1.67;;
20830;SDS011;10576;53.556;9.868;2023-05-17T11:24:51;7.75;;;2.00;;
20830;SDS011;10576;53.556;9.868;2023-05-17T11:27:20;4.57;;;1.45;;
20830;SDS011;10576;53.556;9.868;2023-05-17T11:29:53;6.22;;;1.88;;
20830;SDS011;10576;53.556;9.868;2023-05-17T11:32:26;5.43;;;1.88;;
20830;SDS011;10576;53.556;9.868;2023-05-17T11:34:58;5.73;;;1.70;;
20830;SDS011;10576;53.556;9.868;2023-05-17T11:37:25;3.00;;;1.60;;
20830;SDS011;10576;53.556;9.868;2023-05-17T11:42:29;4.72;;;1.65;;
20830;SDS011;10576;53.556;9.868;2023-05-17T11:44:59;4.72;;;1.70;;
20830;SDS011;10576;53.556;9.868;2023-05-17T11:47:26;6.03;;;2.50;;
20830;SDS011;10576;53.556;9.868;2023-05-17T11:49:53;4.20;;;1.75;;
20830;SDS011;10576;53.556;9.868;2023-05-17T11:52:19;6.93;;;2.10;;
20830;SDS011;10576;53.556;9.868;2023-05-17T11:54:46;3.13;;;1.77;;
20830;SDS011;10576;53.556;9.868;2023-05-17T11:57:13;6.97;;;2.08;;
20830;SDS011;10576;53.556;9.868;2023-05-17T11:59:40;5.95;;;2.22;;
20830;SDS011;10576;53.556;9.868;2023-05-17T12:02:09;6.32;;;1.77;;
20830;SDS011;10576;53.556;9.868;2023-05-17T12:04:49;6.63;;;1.90;;
20830;SDS011;10576;53.556;9.868;2023-05-17T12:07:15;9.13;;;2.00;;
20830;SDS011;10576;53.556;9.868;2023-05-17T12:09:42;7.50;;;1.80;;
20830;SDS011;10576;53.556;9.868;2023-05-17T12:12:08;7.00;;;1.83;;
20830;SDS011;10576;53.556;9.868;2023-05-17T12:14:35;4.45;;;1.63;;
20830;SDS011;10576;53.556;9.868;2023-05-17T12:17:01;4.90;;;1.70;;
20830;SDS011;10576;53.556;9.868;2023-05-17T12:19:29;5.57;;;1.92;;
20830;SDS011;10576;53.556;9.868;2023-05-17T12:22:09;3.03;;;1.77;;
20830;SDS011;10576;53.556;9.868;2023-05-17T12:24:41;5.78;;;1.60;;
20830;SDS011;10576;53.556;9.868;2023-05-17T12:27:07;6.25;;;2.00;;
20830;SDS011;10576;53.556;9.868;2023-05-17T12:29:33;6.05;;;2.00;;
20830;SDS011;10576;53.556;9.868;2023-05-17T12:31:59;6.37;;;1.90;;
20830;SDS011;10576;53.556;9.868;2023-05-17T12:34:29;6.38;;;1.85;;
20830;SDS011;10576;53.556;9.868;2023-05-17T12:36:55;5.67;;;1.77;;
20830;SDS011;10576;53.556;9.868;2023-05-17T12:39:21;6.15;;;2.30;;
20830;SDS011;10576;53.556;9.868;2023-05-17T12:41:48;7.65;;;2.10;;
20830;SDS011;10576;53.556;9.868;2023-05-17T12:44:16;15.18;;;3.75;;
20830;SDS011;10576;53.556;9.868;2023-05-17T12:46:44;16.42;;;3.53;;
20830;SDS011;10576;53.556;9.868;2023-05-17T12:49:17;17.20;;;3.67;;
20830;SDS011;10576;53.556;9.868;2023-05-17T12:51:45;13.45;;;4.10;;
20830;SDS011;10576;53.556;9.868;2023-05-17T12:54:12;13.30;;;3.83;;
20830;SDS011;10576;53.556;9.868;2023-05-17T12:56:51;14.02;;;5.30;;
20830;SDS011;10576;53.556;9.868;2023-05-17T12:59:17;24.45;;;6.10;;
20830;SDS011;10576;53.556;9.868;2023-05-17T13:01:48;3.65;;;1.70;;
20830;SDS011;10576;53.556;9.868;2023-05-17T13:04:31;4.80;;;1.50;;
20830;SDS011;10576;53.556;9.868;2023-05-17T13:06:58;4.95;;;1.85;;
20830;SDS011;10576;53.556;9.868;2023-05-17T13:09:26;6.97;;;1.88;;
20830;SDS011;10576;53.556;9.868;2023-05-17T13:14:38;4.68;;;1.70;;
20830;SDS011;10576;53.556;9.868;2023-05-17T13:17:08;6.28;;;1.70;;
20830;SDS011;10576;53.556;9.868;2023-05-17T13:19:35;7.13;;;1.90;;
20830;SDS011;10576;53.556;9.868;2023-05-17T13:22:02;7.95;;;2.05;;
20830;SDS011;10576;53.556;9.868;2023-05-17T13:24:29;4.65;;;1.63;;
20830;SDS011;10576;53.556;9.868;2023-05-17T13:26:58;4.95;;;1.55;;
20830;SDS011;10576;53.556;9.868;2023-05-17T13:29:24;7.50;;;1.67;;
20830;SDS011;10576;53.556;9.868;2023-05-17T13:31:50;5.57;;;1.63;;
20830;SDS011;10576;53.556;9.868;2023-05-17T13:34:17;6.13;;;1.70;;
20830;SDS011;10576;53.556;9.868;2023-05-17T13:36:44;4.43;;;1.75;;
20830;SDS011;10576;53.556;9.868;2023-05-17T13:39:11;5.82;;;1.90;;
20830;SDS011;10576;53.556;9.868;2023-05-17T13:41:37;8.95;;;2.30;;
20830;SDS011;10576;53.556;9.868;2023-05-17T13:44:03;6.95;;;1.98;;
20830;SDS011;10576;53.556;9.868;2023-05-17T13:46:29;6.38;;;2.15;;
20830;SDS011;10576;53.556;9.868;2023-05-17T13:48:55;8.02;;;2.25;;
20830;SDS011;10576;53.556;9.868;2023-05-17T13:51:21;8.07;;;2.50;;
20830;SDS011;10576;53.556;9.868;2023-05-17T13:53:46;5.73;;;1.87;;
20830;SDS011;10576;53.556;9.868;2023-05-17T13:56:12;8.38;;;2.20;;
20830;SDS011;10576;53.556;9.868;2023-05-17T13:58:38;5.93;;;1.90;;
20830;SDS011;10576;53.556;9.868;2023-05-17T14:01:04;6.43;;;2.00;;
20830;SDS011;10576;53.556;9.868;2023-05-17T14:03:30;7.40;;;2.15;;
20830;SDS011;10576;53.556;9.868;2023-05-17T14:05:56;7.30;;;2.00;;
20830;SDS011;10576;53.556;9.868;2023-05-17T14:08:21;7.33;;;2.10;;
20830;SDS011;10576;53.556;9.868;2023-05-17T14:10:47;9.57;;;2.53;;
20830;SDS011;10576;53.556;9.868;2023-05-17T14:13:14;8.93;;;2.20;;
20830;SDS011;10576;53.556;9.868;2023-05-17T14:15:39;9.48;;;2.22;;
20830;SDS011;10576;53.556;9.868;2023-05-17T14:18:05;5.03;;;2.17;;
20830;SDS011;10576;53.556;9.868;2023-05-17T14:20:31;6.75;;;2.28;;
20830;SDS011;10576;53.556;9.868;2023-05-17T14:22:58;4.28;;;1.80;;
20830;SDS011;10576;53.556;9.868;2023-05-17T14:25:24;6.70;;;2.03;;
20830;SDS011;10576;53.556;9.868;2023-05-17T14:27:50;8.02;;;2.20;;
20830;SDS011;10576;53.556;9.868;2023-05-17T14:30:16;7.03;;;2.20;;
20830;SDS011;10576;53.556;9.868;2023-05-17T14:32:42;7.30;;;2.10;;
20830;SDS011;10576;53.556;9.868;2023-05-17T14:35:08;6.77;;;2.20;;
20830;SDS011;10576;53.556;9.868;2023-05-17T14:37:34;7.93;;;2.30;;
20830;SDS011;10576;53.556;9.868;2023-05-17T14:40:00;6.25;;;2.08;;
20830;SDS011;10576;53.556;9.868;2023-05-17T14:42:26;7.35;;;2.20;;
20830;SDS011;10576;53.556;9.868;2023-05-17T14:44:51;6.88;;;2.40;;
20830;SDS011;10576;53.556;9.868;2023-05-17T14:47:17;5.80;;;2.03;;
20830;SDS011;10576;53.556;9.868;2023-05-17T14:49:45;7.20;;;2.13;;
20830;SDS011;10576;53.556;9.868;2023-05-17T14:52:11;7.40;;;2.00;;
20830;SDS011;10576;53.556;9.868;2023-05-17T14:54:37;7.00;;;2.27;;
20830;SDS011;10576;53.556;9.868;2023-05-17T14:57:05;7.47;;;2.20;;
20830;SDS011;10576;53.556;9.868;2023-05-17T14:59:32;6.80;;;2.20;;
20830;SDS011;10576;53.556;9.868;2023-05-17T15:01:58;6.63;;;2.10;;
20830;SDS011;10576;53.556;9.868;2023-05-17T15:04:24;7.65;;;2.17;;
20830;SDS011;10576;53.556;9.868;2023-05-17T15:06:50;8.48;;;2.30;;
20830;SDS011;10576;53.556;9.868;2023-05-17T15:09:16;7.25;;;2.35;;